createdAt,value
2016-08-02T00:00:44.229Z,0
2016-08-02T00:01:44.930Z,0
2016-08-02T00:02:44.213Z,0
2016-08-02T00:03:44.237Z,0
2016-08-02T00:04:44.218Z,0
2016-08-02T00:05:44.207Z,0
2016-08-02T00:06:44.210Z,0
2016-08-02T00:07:44.199Z,0
2016-08-02T00:08:44.190Z,0
2016-08-02T00:09:44.202Z,0
2016-08-02T00:10:44.201Z,0
2016-08-02T00:11:44.198Z,0
2016-08-02T00:12:44.194Z,0
2016-08-02T00:13:59.807Z,0
2016-08-02T00:14:59.903Z,0
2016-08-02T00:17:00.194Z,0
2016-08-02T00:17:44.753Z,0
2016-08-02T00:18:44.183Z,0
2016-08-02T00:19:44.726Z,0
2016-08-02T00:20:44.169Z,0
2016-08-02T00:21:44.185Z,0
2016-08-02T00:24:01.284Z,0
2016-08-02T00:24:45.174Z,0
2016-08-02T00:25:59.584Z,0
2016-08-02T00:26:44.610Z,0
2016-08-02T00:27:44.607Z,0
2016-08-02T00:28:44.143Z,0
2016-08-02T00:29:44.401Z,0
2016-08-02T00:30:44.155Z,0
2016-08-02T00:31:44.154Z,0
2016-08-02T00:34:45.429Z,0
2016-08-02T00:35:44.928Z,0
2016-08-02T00:36:46.196Z,0
2016-08-02T00:37:44.136Z,0
2016-08-02T00:39:44.127Z,0
2016-08-02T00:40:44.130Z,0
2016-08-02T00:41:47.308Z,0
2016-08-02T00:42:45.896Z,0
2016-08-02T00:43:45.920Z,0
2016-08-02T00:44:45.945Z,0
2016-08-02T00:45:45.581Z,0
2016-08-02T00:46:44.113Z,0
2016-08-02T00:47:44.239Z,0
2016-08-02T00:48:44.104Z,0
2016-08-02T00:49:44.793Z,0
2016-08-02T00:50:44.089Z,0
2016-08-02T00:51:44.108Z,0
2016-08-02T00:52:44.096Z,0
2016-08-02T00:54:44.084Z,0
2016-08-02T00:55:44.135Z,0
2016-08-02T00:56:44.078Z,0
2016-08-02T00:57:44.095Z,0
2016-08-02T00:58:44.080Z,0
2016-08-02T00:59:44.077Z,0
2016-08-02T01:00:44.063Z,0
2016-08-02T01:01:44.067Z,0
2016-08-02T01:02:44.064Z,0
2016-08-02T01:03:44.057Z,0
2016-08-02T01:04:44.054Z,0
2016-08-02T01:05:44.051Z,0
2016-08-02T01:06:44.052Z,0
2016-08-02T01:07:44.048Z,0
2016-08-02T01:09:44.044Z,0
2016-08-02T01:10:44.036Z,0
2016-08-02T01:11:44.040Z,0
2016-08-02T01:12:44.034Z,0
2016-08-02T01:13:44.038Z,0
2016-08-02T01:14:44.039Z,0
2016-08-02T01:15:44.023Z,0
2016-08-02T01:16:44.029Z,0
2016-08-02T01:17:44.023Z,0
2016-08-02T01:18:44.022Z,0
2016-08-02T01:19:44.017Z,0
2016-08-02T01:20:44.014Z,0
2016-08-02T01:21:44.714Z,0
2016-08-02T01:22:44.007Z,0
2016-08-02T01:23:43.994Z,0
2016-08-02T01:24:43.999Z,0
2016-08-02T01:25:43.985Z,0
2016-08-02T01:26:43.989Z,0
2016-08-02T01:27:43.985Z,0
2016-08-02T01:28:43.993Z,0
2016-08-02T01:29:43.984Z,0
2016-08-02T01:30:43.983Z,0
2016-08-02T01:31:43.978Z,0
2016-08-02T01:32:43.966Z,0
2016-08-02T01:33:43.964Z,0
2016-08-02T01:34:43.963Z,0
2016-08-02T01:35:44.661Z,0
2016-08-02T01:36:43.955Z,0
2016-08-02T01:37:43.946Z,0
2016-08-02T01:38:43.941Z,0
2016-08-02T01:39:43.950Z,0
2016-08-02T01:40:43.943Z,0
2016-08-02T01:41:43.935Z,0
2016-08-02T01:42:43.943Z,0
2016-08-02T01:43:43.933Z,0
2016-08-02T01:44:43.929Z,0
2016-08-02T01:45:43.924Z,0
2016-08-02T01:46:43.916Z,0
2016-08-02T01:47:43.917Z,0
2016-08-02T01:48:43.914Z,0
2016-08-02T01:49:43.922Z,0
2016-08-02T01:50:45.966Z,0
2016-08-02T01:52:46.786Z,0
2016-08-02T01:53:45.163Z,0
2016-08-02T01:54:44.322Z,0
2016-08-02T01:55:43.885Z,0
2016-08-02T01:56:43.981Z,0
2016-08-02T01:57:43.916Z,0
2016-08-02T01:58:43.874Z,0
2016-08-02T01:59:43.873Z,0
2016-08-02T02:01:01.899Z,0
2016-08-02T02:01:48.555Z,0
2016-08-02T02:02:46.002Z,0
2016-08-02T02:03:46.573Z,0
2016-08-02T02:04:45.812Z,0
2016-08-02T02:05:44.214Z,0
2016-08-02T02:06:44.632Z,0
2016-08-02T02:07:43.843Z,0
2016-08-02T02:08:43.841Z,0
2016-08-02T02:09:43.840Z,0
2016-08-02T02:10:43.832Z,0
2016-08-02T02:11:43.824Z,0
2016-08-02T02:12:43.832Z,0
2016-08-02T02:13:43.818Z,0
2016-08-02T02:14:43.823Z,0
2016-08-02T02:15:43.811Z,0
2016-08-02T02:16:43.805Z,0
2016-08-02T02:17:43.803Z,0
2016-08-02T02:18:43.795Z,0
2016-08-02T02:19:43.797Z,0
2016-08-02T02:20:43.798Z,0
2016-08-02T02:21:43.791Z,0
2016-08-02T02:22:43.785Z,0
2016-08-02T02:23:43.778Z,0
2016-08-02T02:24:43.773Z,0
2016-08-02T02:25:43.784Z,0
2016-08-02T02:26:43.767Z,0
2016-08-02T02:27:43.769Z,0
2016-08-02T02:28:43.760Z,0
2016-08-02T02:29:43.765Z,0
2016-08-02T02:30:43.747Z,0
2016-08-02T02:31:43.752Z,0
2016-08-02T02:32:44.154Z,0
2016-08-02T02:33:44.493Z,0
2016-08-02T02:34:44.289Z,0
2016-08-02T02:35:44.334Z,0
2016-08-02T02:36:44.725Z,0
2016-08-02T02:37:44.477Z,0
2016-08-02T02:38:43.718Z,0
2016-08-02T02:39:43.724Z,0
2016-08-02T02:40:44.416Z,0
2016-08-02T02:41:45.815Z,0
2016-08-02T02:42:44.358Z,0
2016-08-02T02:43:44.501Z,0
2016-08-02T02:44:43.900Z,0
2016-08-02T02:45:45.047Z,0
2016-08-02T02:46:43.688Z,0
2016-08-02T02:47:43.701Z,0
2016-08-02T02:48:43.684Z,0
2016-08-02T02:49:43.679Z,0
2016-08-02T02:50:43.674Z,0
2016-08-02T02:51:43.668Z,0
2016-08-02T02:52:43.665Z,0
2016-08-02T02:53:43.659Z,0
2016-08-02T02:54:43.652Z,0
2016-08-02T02:55:43.656Z,0
2016-08-02T02:56:43.656Z,0
2016-08-02T02:57:43.648Z,0
2016-08-02T02:58:43.654Z,0
2016-08-02T02:59:43.632Z,0
2016-08-02T03:00:43.633Z,0
2016-08-02T03:01:43.625Z,0
2016-08-02T03:02:43.631Z,0
2016-08-02T03:03:43.635Z,0
2016-08-02T03:04:43.611Z,0
2016-08-02T03:05:43.611Z,0
2016-08-02T03:06:43.610Z,0
2016-08-02T03:07:43.597Z,0
2016-08-02T03:08:43.614Z,0
2016-08-02T03:10:45.722Z,0
2016-08-02T03:11:45.048Z,0
2016-08-02T03:12:45.080Z,0
2016-08-02T03:13:44.883Z,0
2016-08-02T03:14:44.206Z,0
2016-08-02T03:15:43.567Z,5
2016-08-02T03:16:43.569Z,5
2016-08-02T03:17:43.571Z,5
2016-08-02T03:18:45.078Z,5
2016-08-02T03:19:47.485Z,5
2016-08-02T03:20:45.969Z,5
2016-08-02T03:21:44.412Z,5
2016-08-02T03:22:44.617Z,5
2016-08-02T03:23:44.366Z,10
2016-08-02T03:24:43.530Z,10
2016-08-02T03:25:43.576Z,10
2016-08-02T03:26:43.583Z,10
2016-08-02T03:27:43.514Z,10
2016-08-02T03:28:43.518Z,15
2016-08-02T03:29:43.513Z,15
2016-08-02T03:30:43.504Z,15
2016-08-02T03:31:43.502Z,15
2016-08-02T03:32:43.497Z,20
2016-08-02T03:33:43.492Z,20
2016-08-02T03:34:43.503Z,20
2016-08-02T03:35:43.484Z,20
2016-08-02T03:36:44.187Z,25
2016-08-02T03:37:43.476Z,25
2016-08-02T03:38:43.480Z,25
2016-08-02T03:39:43.466Z,30
2016-08-02T03:40:43.459Z,30
2016-08-02T03:41:43.451Z,30
2016-08-02T03:42:43.445Z,35
2016-08-02T03:43:43.448Z,35
2016-08-02T03:44:43.439Z,40
2016-08-02T03:45:43.445Z,40
2016-08-02T03:46:43.440Z,40
2016-08-02T03:47:43.439Z,45
2016-08-02T03:48:43.434Z,45
2016-08-02T03:49:43.426Z,50
2016-08-02T03:51:44.361Z,55
2016-08-02T03:53:44.202Z,60
2016-08-02T03:54:58.712Z,65
2016-08-02T03:55:43.396Z,65
2016-08-02T03:56:43.547Z,70
2016-08-02T03:57:43.388Z,70
2016-08-02T03:58:43.388Z,75
2016-08-02T03:59:44.625Z,75
2016-08-02T04:00:43.925Z,75
2016-08-02T04:01:44.821Z,80
2016-08-02T04:02:59.180Z,90
2016-08-02T04:03:43.513Z,95
2016-08-02T04:04:44.105Z,100
2016-08-02T04:05:43.344Z,105
2016-08-02T04:06:43.345Z,115
2016-08-02T04:07:43.351Z,120
2016-08-02T04:08:43.357Z,125
2016-08-02T04:09:43.333Z,130
2016-08-02T04:10:43.329Z,130
2016-08-02T04:11:43.341Z,140
2016-08-02T04:12:43.326Z,145
2016-08-02T04:13:43.309Z,150
2016-08-02T04:14:44.006Z,155
2016-08-02T04:15:43.326Z,165
2016-08-02T04:16:43.311Z,170
2016-08-02T04:17:43.309Z,180
2016-08-02T04:18:43.297Z,190
2016-08-02T04:19:43.296Z,200
2016-08-02T04:20:43.305Z,200
2016-08-02T04:21:43.296Z,205
2016-08-02T04:22:43.289Z,205
2016-08-02T04:23:43.286Z,210
2016-08-02T04:24:43.286Z,215
2016-08-02T04:25:43.278Z,225
2016-08-02T04:26:43.275Z,235
2016-08-02T04:27:45.355Z,245
2016-08-02T04:28:48.186Z,265
2016-08-02T04:29:44.894Z,285
2016-08-02T04:30:43.831Z,305
2016-08-02T04:31:44.399Z,330
2016-08-02T04:32:43.937Z,350
2016-08-02T04:33:43.272Z,355
2016-08-02T04:34:43.275Z,355
2016-08-02T04:35:43.276Z,360
2016-08-02T04:36:46.959Z,370
2016-08-02T04:38:45.527Z,365
2016-08-02T04:39:45.030Z,360
2016-08-02T04:40:44.069Z,360
2016-08-02T04:41:44.069Z,365
2016-08-02T04:42:43.745Z,355
2016-08-02T04:43:43.286Z,305
2016-08-02T04:44:43.381Z,265
2016-08-02T04:45:43.286Z,265
2016-08-02T04:46:43.295Z,300
2016-08-02T04:47:43.290Z,210
2016-08-02T04:48:44.009Z,210
2016-08-02T04:49:43.299Z,220
2016-08-02T04:50:43.298Z,240
2016-08-02T04:51:43.298Z,255
2016-08-02T04:52:43.310Z,300
2016-08-02T04:53:43.313Z,325
2016-08-02T04:54:43.322Z,290
2016-08-02T04:55:43.329Z,250
2016-08-02T04:56:43.486Z,280
2016-08-02T04:57:43.328Z,345
2016-08-02T04:58:43.333Z,345
2016-08-02T04:59:43.337Z,435
2016-08-02T05:00:43.333Z,435
2016-08-02T05:01:43.356Z,465
2016-08-02T05:02:43.360Z,480
2016-08-02T05:03:43.356Z,500
2016-08-02T05:04:43.364Z,535
2016-08-02T05:05:43.359Z,570
2016-08-02T05:06:43.374Z,555
2016-08-02T05:07:43.367Z,540
2016-08-02T05:08:44.422Z,530
2016-08-02T05:09:45.526Z,580
2016-08-02T05:10:59.900Z,600
2016-08-02T05:12:44.193Z,600
2016-08-02T05:13:43.397Z,600
2016-08-02T05:14:43.803Z,545
2016-08-02T05:15:43.464Z,440
2016-08-02T05:16:43.416Z,475
2016-08-02T05:17:58.346Z,380
2016-08-02T05:18:43.990Z,365
2016-08-02T05:19:44.596Z,325
2016-08-02T05:20:44.898Z,410
2016-08-02T05:22:44.210Z,345
2016-08-02T05:23:43.465Z,370
2016-08-02T05:24:43.571Z,410
2016-08-02T05:25:43.481Z,555
2016-08-02T05:26:43.499Z,640
2016-08-02T05:27:43.489Z,650
2016-08-02T05:28:43.506Z,655
2016-08-02T05:29:43.516Z,690
2016-08-02T05:30:43.539Z,735
2016-08-02T05:31:43.532Z,740
2016-08-02T05:32:43.527Z,765
2016-08-02T05:33:43.534Z,785
2016-08-02T05:34:43.534Z,800
2016-08-02T05:35:43.551Z,870
2016-08-02T05:36:43.564Z,925
2016-08-02T05:37:43.570Z,950
2016-08-02T05:38:43.572Z,890
2016-08-02T05:39:43.579Z,895
2016-08-02T05:40:43.594Z,825
2016-08-02T05:41:43.600Z,660
2016-08-02T05:42:43.613Z,850
2016-08-02T05:43:43.627Z,875
2016-08-02T05:44:43.622Z,890
2016-08-02T05:45:47.329Z,840
2016-08-02T05:47:44.740Z,705
2016-08-02T05:48:44.603Z,555
2016-08-02T05:49:46.202Z,755
2016-08-02T05:50:44.452Z,705
2016-08-02T05:51:44.459Z,635
2016-08-02T05:52:43.710Z,555
2016-08-02T05:53:43.727Z,505
2016-08-02T05:54:46.295Z,515
2016-08-02T05:55:45.318Z,530
2016-08-02T05:56:45.832Z,565
2016-08-02T05:57:46.137Z,595
2016-08-02T05:58:46.141Z,595
2016-08-02T05:59:44.791Z,585
2016-08-02T06:00:43.784Z,580
2016-08-02T06:01:43.789Z,580
2016-08-02T06:02:43.972Z,530
2016-08-02T06:03:43.808Z,480
2016-08-02T06:04:43.813Z,455
2016-08-02T06:05:43.836Z,420
2016-08-02T06:06:43.828Z,405
2016-08-02T06:07:43.837Z,375
2016-08-02T06:08:43.863Z,350
2016-08-02T06:09:43.868Z,335
2016-08-02T06:10:43.864Z,330
2016-08-02T06:11:43.875Z,330
2016-08-02T06:12:43.885Z,330
2016-08-02T06:13:43.901Z,325
2016-08-02T06:14:43.905Z,335
2016-08-02T06:15:43.915Z,350
2016-08-02T06:16:43.924Z,360
2016-08-02T06:17:43.934Z,350
2016-08-02T06:18:43.930Z,325
2016-08-02T06:19:43.941Z,310
2016-08-02T06:20:43.944Z,310
2016-08-02T06:21:43.956Z,325
2016-08-02T06:22:43.959Z,335
2016-08-02T06:23:43.973Z,355
2016-08-02T06:24:43.973Z,375
2016-08-02T06:25:43.979Z,395
2016-08-02T06:26:43.995Z,400
2016-08-02T06:27:45.843Z,405
2016-08-02T06:28:59.276Z,410
2016-08-02T06:29:45.462Z,410
2016-08-02T06:30:44.222Z,405
2016-08-02T06:31:44.363Z,395
2016-08-02T06:32:44.024Z,380
2016-08-02T06:33:44.628Z,365
2016-08-02T06:34:44.041Z,340
2016-08-02T06:35:44.046Z,300
2016-08-02T06:37:00.020Z,260
2016-08-02T06:37:44.252Z,235
2016-08-02T06:38:45.017Z,215
2016-08-02T06:39:44.229Z,195
2016-08-02T06:40:44.981Z,180
2016-08-02T06:41:45.032Z,170
2016-08-02T06:42:44.073Z,160
2016-08-02T06:43:44.091Z,145
2016-08-02T06:44:44.079Z,135
2016-08-02T06:45:44.090Z,130
2016-08-02T06:46:44.093Z,125
2016-08-02T06:47:44.112Z,130
2016-08-02T06:48:44.095Z,135
2016-08-02T06:49:44.104Z,145
2016-08-02T06:50:44.114Z,155
2016-08-02T06:51:44.115Z,165
2016-08-02T06:52:44.121Z,180
2016-08-02T06:53:44.118Z,200
2016-08-02T06:54:44.137Z,210
2016-08-02T06:55:44.960Z,220
2016-08-02T06:56:44.242Z,215
2016-08-02T06:57:44.134Z,200
2016-08-02T06:58:44.131Z,190
2016-08-02T06:59:44.131Z,195
2016-08-02T07:00:44.142Z,195
2016-08-02T07:01:44.141Z,190
2016-08-02T07:02:44.144Z,175
2016-08-02T07:03:45.724Z,165
2016-08-02T07:04:47.578Z,165
2016-08-02T07:05:46.990Z,160
2016-08-02T07:06:45.687Z,155
2016-08-02T07:07:45.239Z,160
2016-08-02T07:08:44.529Z,165
2016-08-02T07:10:44.180Z,170
2016-08-02T07:11:44.148Z,180
2016-08-02T07:12:44.160Z,190
2016-08-02T07:13:46.252Z,190
2016-08-02T07:14:45.846Z,200
2016-08-02T07:15:45.198Z,215
2016-08-02T07:16:45.168Z,225
2016-08-02T07:17:45.050Z,225
2016-08-02T07:18:44.259Z,225
2016-08-02T07:19:44.703Z,210
2016-08-02T07:20:44.160Z,210
2016-08-02T07:21:44.204Z,210
2016-08-02T07:22:44.179Z,210
2016-08-02T07:23:44.176Z,205
2016-08-02T07:24:44.161Z,215
2016-08-02T07:25:44.166Z,230
2016-08-02T07:26:44.862Z,250
2016-08-02T07:27:44.160Z,290
2016-08-02T07:28:44.165Z,335
2016-08-02T07:29:44.168Z,355
2016-08-02T07:30:44.168Z,365
2016-08-02T07:31:44.163Z,345
2016-08-02T07:32:44.164Z,310
2016-08-02T07:33:44.160Z,270
2016-08-02T07:34:44.165Z,240
2016-08-02T07:35:44.166Z,240
2016-08-02T07:36:44.172Z,245
2016-08-02T07:37:44.175Z,250
2016-08-02T07:38:44.167Z,270
2016-08-02T07:39:44.172Z,295
2016-08-02T07:40:44.179Z,315
2016-08-02T07:41:44.174Z,315
2016-08-02T07:42:44.176Z,315
2016-08-02T07:43:44.168Z,315
2016-08-02T07:44:44.180Z,325
2016-08-02T07:45:45.723Z,335
2016-08-02T07:47:44.484Z,365
2016-08-02T07:48:44.430Z,380
2016-08-02T07:49:59.489Z,390
2016-08-02T07:50:44.926Z,405
2016-08-02T07:51:44.936Z,430
2016-08-02T07:52:44.171Z,450
2016-08-02T07:53:44.179Z,465
2016-08-02T07:54:59.706Z,445
2016-08-02T07:56:00.305Z,440
2016-08-02T07:56:45.851Z,435
2016-08-02T07:58:45.144Z,410
2016-08-02T07:59:44.640Z,380
2016-08-02T08:00:44.341Z,355
2016-08-02T08:01:44.188Z,330
2016-08-02T08:02:44.196Z,315
2016-08-02T08:03:44.192Z,310
2016-08-02T08:04:44.204Z,320
2016-08-02T08:05:44.193Z,335
2016-08-02T08:06:44.195Z,345
2016-08-02T08:07:44.213Z,345
2016-08-02T08:08:44.206Z,350
2016-08-02T08:09:44.208Z,360
2016-08-02T08:10:44.211Z,375
2016-08-02T08:11:44.199Z,390
2016-08-02T08:12:44.205Z,405
2016-08-02T08:13:44.206Z,410
2016-08-02T08:14:44.206Z,415
2016-08-02T08:15:44.212Z,420
2016-08-02T08:16:44.210Z,415
2016-08-02T08:17:44.214Z,390
2016-08-02T08:18:44.222Z,355
2016-08-02T08:19:44.211Z,320
2016-08-02T08:20:44.238Z,300
2016-08-02T08:21:44.226Z,290
2016-08-02T08:22:46.319Z,290
2016-08-02T08:23:46.858Z,310
2016-08-02T08:24:46.798Z,335
2016-08-02T08:25:45.161Z,365
2016-08-02T08:26:45.324Z,380
2016-08-02T08:27:44.439Z,390
2016-08-02T08:28:44.232Z,395
2016-08-02T08:29:44.239Z,410
2016-08-02T08:30:44.234Z,415
2016-08-02T08:31:46.890Z,420
2016-08-02T08:32:46.059Z,435
2016-08-02T08:33:46.474Z,455
2016-08-02T08:34:45.245Z,490
2016-08-02T08:35:45.867Z,515
2016-08-02T08:36:45.405Z,530
2016-08-02T08:37:44.640Z,525
2016-08-02T08:38:44.389Z,520
2016-08-02T08:39:44.248Z,510
2016-08-02T08:40:44.260Z,500
2016-08-02T08:41:44.261Z,505
2016-08-02T08:42:44.254Z,515
2016-08-02T08:43:44.257Z,520
2016-08-02T08:44:44.260Z,530
2016-08-02T08:45:44.272Z,525
2016-08-02T08:46:44.277Z,520
2016-08-02T08:47:44.271Z,525
2016-08-02T08:48:44.272Z,520
2016-08-02T08:49:44.276Z,505
2016-08-02T08:50:44.270Z,495
2016-08-02T08:51:44.280Z,510
2016-08-02T08:52:44.280Z,530
2016-08-02T08:53:44.279Z,550
2016-08-02T08:54:44.282Z,565
2016-08-02T08:55:44.288Z,600
2016-08-02T08:56:44.291Z,615
2016-08-02T08:57:44.294Z,620
2016-08-02T08:58:44.292Z,615
2016-08-02T08:59:44.307Z,630
2016-08-02T09:00:44.305Z,640
2016-08-02T09:01:44.320Z,620
2016-08-02T09:02:44.312Z,605
2016-08-02T09:03:44.812Z,590
2016-08-02T09:04:45.220Z,565
2016-08-02T09:05:45.962Z,565
2016-08-02T09:06:45.828Z,585
2016-08-02T09:07:59.233Z,580
2016-08-02T09:08:44.323Z,560
2016-08-02T09:09:44.332Z,530
2016-08-02T09:10:44.338Z,505
2016-08-02T09:11:44.342Z,505
2016-08-02T09:12:59.952Z,530
2016-08-02T09:14:00.058Z,550
2016-08-02T09:14:45.292Z,575
2016-08-02T09:15:46.058Z,625
2016-08-02T09:16:46.028Z,660
2016-08-02T09:17:44.812Z,700
2016-08-02T09:18:45.172Z,720
2016-08-02T09:19:44.363Z,705
2016-08-02T09:20:44.368Z,710
2016-08-02T09:21:44.380Z,730
2016-08-02T09:22:44.381Z,735
2016-08-02T09:23:44.389Z,725
2016-08-02T09:24:44.380Z,705
2016-08-02T09:25:44.387Z,690
2016-08-02T09:26:44.403Z,675
2016-08-02T09:27:44.388Z,655
2016-08-02T09:28:44.400Z,630
2016-08-02T09:29:44.399Z,610
2016-08-02T09:30:44.408Z,585
2016-08-02T09:31:44.432Z,585
2016-08-02T09:32:44.417Z,595
2016-08-02T09:33:44.428Z,615
2016-08-02T09:34:44.435Z,630
2016-08-02T09:35:44.430Z,645
2016-08-02T09:36:44.438Z,655
2016-08-02T09:37:44.445Z,675
2016-08-02T09:38:44.445Z,685
2016-08-02T09:39:44.443Z,675
2016-08-02T09:40:47.009Z,670
2016-08-02T09:41:46.654Z,665
2016-08-02T09:42:47.834Z,640
2016-08-02T09:43:47.061Z,620
2016-08-02T09:44:45.239Z,585
2016-08-02T09:45:45.893Z,545
2016-08-02T09:46:45.424Z,550
2016-08-02T09:47:44.480Z,540
2016-08-02T09:48:44.497Z,520
2016-08-02T09:50:48.696Z,510
2016-08-02T09:51:47.238Z,500
2016-08-02T09:52:46.972Z,495
2016-08-02T09:53:45.627Z,485
2016-08-02T09:54:44.524Z,495
2016-08-02T09:55:44.521Z,495
2016-08-02T09:56:44.672Z,495
2016-08-02T09:57:44.643Z,470
2016-08-02T09:58:44.534Z,450
2016-08-02T09:59:44.563Z,430
2016-08-02T10:00:44.549Z,425
2016-08-02T10:01:45.245Z,425
2016-08-02T10:02:44.548Z,430
2016-08-02T10:03:44.550Z,440
2016-08-02T10:04:44.564Z,460
2016-08-02T10:05:44.557Z,485
2016-08-02T10:06:44.568Z,495
2016-08-02T10:07:44.570Z,500
2016-08-02T10:08:44.572Z,510
2016-08-02T10:09:44.582Z,515
2016-08-02T10:10:44.586Z,520
2016-08-02T10:11:44.587Z,515
2016-08-02T10:12:44.592Z,510
2016-08-02T10:13:44.592Z,500
2016-08-02T10:14:44.591Z,505
2016-08-02T10:15:44.595Z,525
2016-08-02T10:16:44.596Z,555
2016-08-02T10:17:44.609Z,560
2016-08-02T10:18:44.607Z,565
2016-08-02T10:19:44.610Z,605
2016-08-02T10:20:44.626Z,625
2016-08-02T10:22:00.186Z,585
2016-08-02T10:23:00.240Z,585
2016-08-02T10:23:46.332Z,610
2016-08-02T10:24:46.235Z,625
2016-08-02T10:25:44.985Z,635
2016-08-02T10:26:44.637Z,640
2016-08-02T10:27:45.086Z,660
2016-08-02T10:28:44.642Z,675
2016-08-02T10:29:44.640Z,700
2016-08-02T10:31:46.399Z,725
2016-08-02T10:32:45.348Z,725
2016-08-02T10:33:59.927Z,725
2016-08-02T10:34:44.859Z,725
2016-08-02T10:35:44.815Z,715
2016-08-02T10:36:44.668Z,715
2016-08-02T10:37:44.677Z,720
2016-08-02T10:38:44.680Z,745
2016-08-02T10:39:44.691Z,770
2016-08-02T10:40:44.689Z,795
2016-08-02T10:41:45.398Z,800
2016-08-02T10:42:44.711Z,810
2016-08-02T10:43:45.392Z,825
2016-08-02T10:44:44.706Z,810
2016-08-02T10:45:44.727Z,790
2016-08-02T10:46:44.716Z,775
2016-08-02T10:47:44.717Z,765
2016-08-02T10:48:44.716Z,740
2016-08-02T10:49:44.723Z,715
2016-08-02T10:50:44.730Z,730
2016-08-02T10:51:44.732Z,775
2016-08-02T10:52:44.752Z,820
2016-08-02T10:53:44.747Z,740
2016-08-02T10:54:44.763Z,785
2016-08-02T10:55:44.754Z,940
2016-08-02T10:56:44.758Z,945
2016-08-02T10:57:44.778Z,915
2016-08-02T10:59:46.474Z,890
2016-08-02T11:00:48.571Z,845
2016-08-02T11:01:45.635Z,815
2016-08-02T11:02:45.703Z,735
2016-08-02T11:03:44.795Z,720
2016-08-02T11:04:44.915Z,770
2016-08-02T11:05:44.817Z,805
2016-08-02T11:06:44.824Z,825
2016-08-02T11:07:47.077Z,855
2016-08-02T11:08:46.497Z,870
2016-08-02T11:09:47.528Z,900
2016-08-02T11:10:48.361Z,920
2016-08-02T11:11:45.759Z,940
2016-08-02T11:12:45.011Z,900
2016-08-02T11:13:45.862Z,905
2016-08-02T11:14:44.879Z,910
2016-08-02T11:15:45.571Z,945
2016-08-02T11:16:45.572Z,945
2016-08-02T11:17:44.882Z,970
2016-08-02T11:18:44.906Z,985
2016-08-02T11:19:44.900Z,995
2016-08-02T11:20:44.902Z,990
2016-08-02T11:21:44.916Z,960
2016-08-02T11:22:44.919Z,925
2016-08-02T11:23:44.927Z,930
2016-08-02T11:24:44.936Z,920
2016-08-02T11:25:44.940Z,855
2016-08-02T11:26:44.943Z,815
2016-08-02T11:27:44.953Z,845
2016-08-02T11:28:44.967Z,840
2016-08-02T11:29:44.968Z,765
2016-08-02T11:30:44.977Z,785
2016-08-02T11:31:44.980Z,790
2016-08-02T11:32:44.983Z,635
2016-08-02T11:33:44.997Z,515
2016-08-02T11:34:44.996Z,545
2016-08-02T11:35:45.001Z,565
2016-08-02T11:36:45.013Z,510
2016-08-02T11:37:45.015Z,515
2016-08-02T11:38:45.029Z,490
2016-08-02T11:39:45.035Z,480
2016-08-02T11:41:01.058Z,430
2016-08-02T11:41:45.851Z,445
2016-08-02T11:42:45.804Z,570
2016-08-02T11:44:46.863Z,485
2016-08-02T11:45:46.037Z,480
2016-08-02T11:46:45.097Z,485
2016-08-02T11:47:45.090Z,390
2016-08-02T11:48:45.095Z,330
2016-08-02T11:50:45.599Z,390
2016-08-02T11:51:46.506Z,495
2016-08-02T11:52:45.767Z,630
2016-08-02T11:53:45.123Z,615
2016-08-02T11:54:45.126Z,535
2016-08-02T11:55:45.144Z,535
2016-08-02T11:56:45.241Z,580
2016-08-02T11:57:45.145Z,580
2016-08-02T11:58:45.164Z,605
2016-08-02T11:59:45.860Z,595
2016-08-02T12:00:45.162Z,585
2016-08-02T12:01:45.172Z,555
2016-08-02T12:02:45.170Z,470
2016-08-02T12:03:45.177Z,480
2016-08-02T12:04:45.182Z,540
2016-08-02T12:05:45.186Z,550
2016-08-02T12:06:45.198Z,535
2016-08-02T12:07:45.190Z,525
2016-08-02T12:08:46.283Z,520
2016-08-02T12:09:45.203Z,500
2016-08-02T12:11:45.222Z,480
2016-08-02T12:12:45.225Z,490
2016-08-02T12:13:45.231Z,495
2016-08-02T12:14:45.241Z,495
2016-08-02T12:15:45.235Z,490
2016-08-02T12:16:45.234Z,490
2016-08-02T12:18:48.825Z,480
2016-08-02T12:19:46.742Z,485
2016-08-02T12:20:47.775Z,545
2016-08-02T12:21:47.363Z,575
2016-08-02T12:22:46.106Z,570
2016-08-02T12:23:45.272Z,530
2016-08-02T12:24:45.279Z,530
2016-08-02T12:25:45.275Z,530
2016-08-02T12:27:47.757Z,505
2016-08-02T12:28:46.278Z,440
2016-08-02T12:29:47.935Z,405
2016-08-02T12:30:45.300Z,440
2016-08-02T12:31:45.315Z,460
2016-08-02T12:32:45.853Z,470
2016-08-02T12:33:45.331Z,495
2016-08-02T12:34:45.305Z,495
2016-08-02T12:35:45.335Z,475
2016-08-02T12:36:45.338Z,470
2016-08-02T12:37:45.339Z,455
2016-08-02T12:38:45.329Z,450
2016-08-02T12:39:45.344Z,405
2016-08-02T12:40:45.357Z,370
2016-08-02T12:41:45.357Z,385
2016-08-02T12:42:45.353Z,370
2016-08-02T12:43:45.357Z,370
2016-08-02T12:44:46.043Z,385
2016-08-02T12:45:45.367Z,390
2016-08-02T12:46:45.373Z,395
2016-08-02T12:47:45.363Z,360
2016-08-02T12:48:45.377Z,340
2016-08-02T12:49:45.369Z,330
2016-08-02T12:50:45.380Z,340
2016-08-02T12:51:45.373Z,350
2016-08-02T12:52:45.392Z,340
2016-08-02T12:53:45.383Z,325
2016-08-02T12:54:45.400Z,335
2016-08-02T12:55:45.397Z,360
2016-08-02T12:56:45.545Z,415
2016-08-02T12:57:45.397Z,425
2016-08-02T12:59:00.584Z,425
2016-08-02T12:59:46.763Z,470
2016-08-02T13:00:46.375Z,510
2016-08-02T13:01:45.764Z,515
2016-08-02T13:02:45.579Z,515
2016-08-02T13:03:45.423Z,505
2016-08-02T13:04:45.427Z,465
2016-08-02T13:05:45.437Z,475
2016-08-02T13:06:45.437Z,510
2016-08-02T13:07:47.402Z,520
2016-08-02T13:09:00.614Z,495
2016-08-02T13:09:46.503Z,435
2016-08-02T13:10:46.095Z,415
2016-08-02T13:12:00.361Z,455
2016-08-02T13:12:46.152Z,465
2016-08-02T13:13:46.006Z,435
2016-08-02T13:14:45.468Z,435
2016-08-02T13:15:45.461Z,420
2016-08-02T13:16:45.491Z,405
2016-08-02T13:17:45.467Z,395
2016-08-02T13:18:45.474Z,395
2016-08-02T13:19:46.428Z,425
2016-08-02T13:20:45.473Z,425
2016-08-02T13:21:45.479Z,400
2016-08-02T13:22:45.489Z,370
2016-08-02T13:23:45.491Z,315
2016-08-02T13:24:45.486Z,285
2016-08-02T13:25:45.507Z,275
2016-08-02T13:26:45.516Z,320
2016-08-02T13:27:45.510Z,380
2016-08-02T13:28:45.513Z,405
2016-08-02T13:29:45.513Z,395
2016-08-02T13:30:45.520Z,375
2016-08-02T13:31:45.522Z,340
2016-08-02T13:32:45.527Z,335
2016-08-02T13:33:45.525Z,375
2016-08-02T13:34:45.534Z,400
2016-08-02T13:36:48.904Z,400
2016-08-02T13:37:47.847Z,385
2016-08-02T13:38:46.694Z,375
2016-08-02T13:39:45.555Z,380
2016-08-02T13:40:45.545Z,415
2016-08-02T13:41:45.560Z,405
2016-08-02T13:42:45.564Z,385
2016-08-02T13:43:45.562Z,380
2016-08-02T13:44:47.936Z,370
2016-08-02T13:45:47.593Z,380
2016-08-02T13:46:47.074Z,365
2016-08-02T13:47:46.454Z,350
2016-08-02T13:48:45.574Z,335
2016-08-02T13:49:45.603Z,365
2016-08-02T13:50:45.590Z,335
2016-08-02T13:51:45.587Z,390
2016-08-02T13:52:45.584Z,480
2016-08-02T13:53:45.588Z,495
2016-08-02T13:54:45.600Z,485
2016-08-02T13:55:45.607Z,475
2016-08-02T13:56:45.618Z,470
2016-08-02T13:57:45.608Z,470
2016-08-02T13:58:45.612Z,470
2016-08-02T13:59:45.618Z,465
2016-08-02T14:00:45.616Z,475
2016-08-02T14:01:45.618Z,485
2016-08-02T14:02:45.623Z,490
2016-08-02T14:03:45.641Z,520
2016-08-02T14:04:45.622Z,555
2016-08-02T14:05:45.639Z,565
2016-08-02T14:06:45.641Z,575
2016-08-02T14:07:45.647Z,575
2016-08-02T14:08:45.654Z,570
2016-08-02T14:09:45.653Z,580
2016-08-02T14:10:45.662Z,610
2016-08-02T14:11:45.661Z,620
2016-08-02T14:12:45.673Z,635
2016-08-02T14:13:45.673Z,635
2016-08-02T14:14:45.673Z,605
2016-08-02T14:15:45.673Z,555
2016-08-02T14:17:47.094Z,520
2016-08-02T14:18:46.178Z,505
2016-08-02T14:19:46.139Z,490
2016-08-02T14:20:46.441Z,465
2016-08-02T14:21:45.693Z,450
2016-08-02T14:22:45.699Z,475
2016-08-02T14:23:45.711Z,535
2016-08-02T14:24:45.717Z,525
2016-08-02T14:25:46.919Z,500
2016-08-02T14:26:46.720Z,510
2016-08-02T14:30:46.543Z,460
2016-08-02T14:31:45.741Z,420